sensor_id;sensor_type;location;lat;lon;timestamp;P1;P2;P0
50587;PMS7003;70782;50.514;30.816;2023-07-02T00:01:01;8.30;8.30;7.40
50587;PMS7003;70782;50.514;30.816;2023-07-02T00:02:03;18.10;17.30;12.90
50587;PMS7003;70782;50.514;30.816;2023-07-02T00:03:05;17.70;17.50;13.10
50587;PMS7003;70782;50.514;30.816;2023-07-02T00:04:07;15.60;15.40;11.60
50587;PMS7003;70782;50.514;30.816;2023-07-02T00:05:10;17.50;16.60;13.10
50587;PMS7003;70782;50.514;30.816;2023-07-02T00:06:12;18.10;17.50;13.60
50587;PMS7003;70782;50.514;30.816;2023-07-02T00:07:14;19.67;18.11;14.00
50587;PMS7003;70782;50.514;30.816;2023-07-02T00:08:17;17.70;17.70;13.50
50587;PMS7003;70782;50.514;30.816;2023-07-02T00:09:19;19.89;19.11;13.78
50587;PMS7003;70782;50.514;30.816;2023-07-02T00:10:21;18.20;17.90;13.80
50587;PMS7003;70782;50.514;30.816;2023-07-02T00:11:24;19.50;18.00;15.10
50587;PMS7003;70782;50.514;30.816;2023-07-02T00:12:26;16.90;16.90;12.60
50587;PMS7003;70782;50.514;30.816;2023-07-02T00:13:28;16.30;15.60;12.60
50587;PMS7003;70782;50.514;30.816;2023-07-02T00:14:30;18.00;16.10;13.20
50587;PMS7003;70782;50.514;30.816;2023-07-02T00:15:32;22.00;20.00;15.40
50587;PMS7003;70782;50.514;30.816;2023-07-02T00:16:35;18.10;17.80;13.90
50587;PMS7003;70782;50.514;30.816;2023-07-02T00:17:38;18.50;18.30;13.90
50587;PMS7003;70782;50.514;30.816;2023-07-02T00:18:40;19.60;17.90;13.60
50587;PMS7003;70782;50.514;30.816;2023-07-02T00:19:42;19.80;19.10;13.10
50587;PMS7003;70782;50.514;30.816;2023-07-02T00:20:45;20.30;18.40;14.10
50587;PMS7003;70782;50.514;30.816;2023-07-02T00:21:47;16.80;16.60;13.30
50587;PMS7003;70782;50.514;30.816;2023-07-02T00:22:50;17.70;17.60;12.90
50587;PMS7003;70782;50.514;30.816;2023-07-02T00:23:52;18.10;17.60;13.70
50587;PMS7003;70782;50.514;30.816;2023-07-02T00:24:54;20.56;18.56;13.89
50587;PMS7003;70782;50.514;30.816;2023-07-02T00:27:06;20.60;19.50;14.70
50587;PMS7003;70782;50.514;30.816;2023-07-02T00:28:08;20.56;19.11;14.33
50587;PMS7003;70782;50.514;30.816;2023-07-02T00:29:10;18.00;17.78;14.11
50587;PMS7003;70782;50.514;30.816;2023-07-02T00:30:13;17.20;16.40;12.90
50587;PMS7003;70782;50.514;30.816;2023-07-02T00:31:16;16.82;15.18;11.73
50587;PMS7003;70782;50.514;30.816;2023-07-02T00:32:18;19.20;17.90;14.20
50587;PMS7003;70782;50.514;30.816;2023-07-02T00:33:21;14.90;14.20;12.30
50587;PMS7003;70782;50.514;30.816;2023-07-02T00:34:22;18.22;16.00;13.89
50587;PMS7003;70782;50.514;30.816;2023-07-02T00:35:25;18.60;17.90;13.70
50587;PMS7003;70782;50.514;30.816;2023-07-02T00:36:27;18.40;18.40;14.20
50587;PMS7003;70782;50.514;30.816;2023-07-02T00:37:30;17.50;16.80;13.20
50587;PMS7003;70782;50.514;30.816;2023-07-02T00:38:32;19.20;17.40;13.80
50587;PMS7003;70782;50.514;30.816;2023-07-02T00:39:34;20.30;20.30;15.30
50587;PMS7003;70782;50.514;30.816;2023-07-02T00:40:37;17.40;16.80;13.10
50587;PMS7003;70782;50.514;30.816;2023-07-02T00:41:39;17.80;17.00;13.20
50587;PMS7003;70782;50.514;30.816;2023-07-02T00:42:41;19.20;19.20;15.20
50587;PMS7003;70782;50.514;30.816;2023-07-02T00:43:44;18.90;17.50;13.50
50587;PMS7003;70782;50.514;30.816;2023-07-02T00:44:46;17.60;17.60;13.10
50587;PMS7003;70782;50.514;30.816;2023-07-02T00:45:48;19.90;18.30;15.10
50587;PMS7003;70782;50.514;30.816;2023-07-02T00:46:50;18.70;17.60;13.20
50587;PMS7003;70782;50.514;30.816;2023-07-02T00:47:53;19.80;19.00;13.70
50587;PMS7003;70782;50.514;30.816;2023-07-02T00:48:56;19.60;19.30;14.40
50587;PMS7003;70782;50.514;30.816;2023-07-02T00:49:59;18.80;18.00;13.90
50587;PMS7003;70782;50.514;30.816;2023-07-02T00:51:02;18.70;18.70;14.30
50587;PMS7003;70782;50.514;30.816;2023-07-02T00:52:04;18.70;17.60;14.20
50587;PMS7003;70782;50.514;30.816;2023-07-02T00:53:07;19.10;17.90;14.40
50587;PMS7003;70782;50.514;30.816;2023-07-02T00:54:09;22.00;19.11;14.56
50587;PMS7003;70782;50.514;30.816;2023-07-02T00:55:11;19.78;18.89;14.33
50587;PMS7003;70782;50.514;30.816;2023-07-02T00:56:13;17.00;17.00;13.10
50587;PMS7003;70782;50.514;30.816;2023-07-02T00:57:16;17.10;17.10;14.20
50587;PMS7003;70782;50.514;30.816;2023-07-02T00:58:18;17.60;17.60;13.30
50587;PMS7003;70782;50.514;30.816;2023-07-02T00:59:19;20.11;18.78;14.56
50587;PMS7003;70782;50.514;30.816;2023-07-02T01:00:22;19.10;19.10;14.00
50587;PMS7003;70782;50.514;30.816;2023-07-02T01:01:25;20.64;19.18;14.64
50587;PMS7003;70782;50.514;30.816;2023-07-02T01:02:28;18.90;18.60;14.00
50587;PMS7003;70782;50.514;30.816;2023-07-02T01:03:31;19.70;19.20;14.40
50587;PMS7003;70782;50.514;30.816;2023-07-02T01:04:33;20.70;19.90;15.70
50587;PMS7003;70782;50.514;30.816;2023-07-02T01:05:36;19.40;18.60;14.70
50587;PMS7003;70782;50.514;30.816;2023-07-02T01:06:38;21.80;20.80;16.90
50587;PMS7003;70782;50.514;30.816;2023-07-02T01:07:40;20.40;19.20;14.90
50587;PMS7003;70782;50.514;30.816;2023-07-02T01:08:42;21.20;20.00;15.20
50587;PMS7003;70782;50.514;30.816;2023-07-02T01:09:45;19.20;18.50;14.70
50587;PMS7003;70782;50.514;30.816;2023-07-02T01:10:47;21.10;19.50;14.90
50587;PMS7003;70782;50.514;30.816;2023-07-02T01:11:50;19.80;19.50;14.70
50587;PMS7003;70782;50.514;30.816;2023-07-02T01:13:08;19.70;19.10;14.30
50587;PMS7003;70782;50.514;30.816;2023-07-02T01:15:29;21.40;20.20;14.90
50587;PMS7003;70782;50.514;30.816;2023-07-02T01:16:31;20.90;20.20;15.50
50587;PMS7003;70782;50.514;30.816;2023-07-02T01:17:35;22.30;22.30;16.80
50587;PMS7003;70782;50.514;30.816;2023-07-02T01:18:37;20.70;20.00;15.60
50587;PMS7003;70782;50.514;30.816;2023-07-02T01:20:46;22.50;22.20;16.40
50587;PMS7003;70782;50.514;30.816;2023-07-02T01:21:49;20.80;20.30;15.30
50587;PMS7003;70782;50.514;30.816;2023-07-02T01:22:51;22.30;20.50;16.10
50587;PMS7003;70782;50.514;30.816;2023-07-02T01:23:53;21.70;20.40;14.90
50587;PMS7003;70782;50.514;30.816;2023-07-02T01:24:55;21.00;21.00;15.20
50587;PMS7003;70782;50.514;30.816;2023-07-02T01:25:57;20.60;20.30;15.90
50587;PMS7003;70782;50.514;30.816;2023-07-02T01:27:00;17.80;17.40;13.50
50587;PMS7003;70782;50.514;30.816;2023-07-02T01:28:02;21.50;20.50;16.20
50587;PMS7003;70782;50.514;30.816;2023-07-02T01:29:14;22.20;21.10;15.70
50587;PMS7003;70782;50.514;30.816;2023-07-02T01:30:18;21.60;21.00;16.40
50587;PMS7003;70782;50.514;30.816;2023-07-02T01:31:20;21.80;20.20;15.80
50587;PMS7003;70782;50.514;30.816;2023-07-02T01:32:23;22.10;21.40;15.30
50587;PMS7003;70782;50.514;30.816;2023-07-02T01:33:25;21.30;20.50;16.20
50587;PMS7003;70782;50.514;30.816;2023-07-02T01:34:27;20.56;18.89;14.78
50587;PMS7003;70782;50.514;30.816;2023-07-02T01:35:29;21.80;21.80;15.90
50587;PMS7003;70782;50.514;30.816;2023-07-02T01:36:32;19.80;19.70;13.70
50587;PMS7003;70782;50.514;30.816;2023-07-02T01:37:34;20.30;19.10;15.20
50587;PMS7003;70782;50.514;30.816;2023-07-02T01:38:36;22.10;20.70;15.10
50587;PMS7003;70782;50.514;30.816;2023-07-02T01:39:38;19.90;19.70;15.10
50587;PMS7003;70782;50.514;30.816;2023-07-02T01:40:41;23.55;23.00;17.64
50587;PMS7003;70782;50.514;30.816;2023-07-02T01:41:44;19.70;19.50;14.60
50587;PMS7003;70782;50.514;30.816;2023-07-02T01:43:14;25.30;22.50;17.00
50587;PMS7003;70782;50.514;30.816;2023-07-02T01:44:16;21.78;21.11;16.56
50587;PMS7003;70782;50.514;30.816;2023-07-02T01:45:19;19.80;19.80;15.20
50587;PMS7003;70782;50.514;30.816;2023-07-02T01:46:22;18.70;18.60;14.20
50587;PMS7003;70782;50.514;30.816;2023-07-02T01:47:24;18.50;18.10;13.90
50587;PMS7003;70782;50.514;30.816;2023-07-02T01:48:26;19.50;18.90;14.50
50587;PMS7003;70782;50.514;30.816;2023-07-02T01:49:28;19.70;18.00;14.20
50587;PMS7003;70782;50.514;30.816;2023-07-02T01:50:30;21.00;20.50;15.40
50587;PMS7003;70782;50.514;30.816;2023-07-02T01:51:33;21.00;20.90;14.50
50587;PMS7003;70782;50.514;30.816;2023-07-02T01:52:35;21.82;20.00;14.64
50587;PMS7003;70782;50.514;30.816;2023-07-02T01:53:38;21.10;20.60;14.80
50587;PMS7003;70782;50.514;30.816;2023-07-02T01:54:40;21.60;21.20;15.10
50587;PMS7003;70782;50.514;30.816;2023-07-02T01:55:44;21.70;20.80;15.70
50587;PMS7003;70782;50.514;30.816;2023-07-02T01:56:46;21.50;21.00;16.10
50587;PMS7003;70782;50.514;30.816;2023-07-02T01:57:49;23.60;22.40;16.60
50587;PMS7003;70782;50.514;30.816;2023-07-02T01:58:51;26.40;23.80;15.80
50587;PMS7003;70782;50.514;30.816;2023-07-02T01:59:52;22.56;21.67;17.11
50587;PMS7003;70782;50.514;30.816;2023-07-02T02:00:55;21.30;20.70;17.10
50587;PMS7003;70782;50.514;30.816;2023-07-02T02:01:57;22.80;22.10;15.90
50587;PMS7003;70782;50.514;30.816;2023-07-02T02:02:59;23.10;22.50;16.40
50587;PMS7003;70782;50.514;30.816;2023-07-02T02:04:01;22.30;20.20;15.80
50587;PMS7003;70782;50.514;30.816;2023-07-02T02:05:04;22.70;21.50;16.30
50587;PMS7003;70782;50.514;30.816;2023-07-02T02:06:07;23.00;22.20;16.10
50587;PMS7003;70782;50.514;30.816;2023-07-02T02:07:09;22.40;21.40;17.30
50587;PMS7003;70782;50.514;30.816;2023-07-02T02:08:11;22.40;20.50;15.30
50587;PMS7003;70782;50.514;30.816;2023-07-02T02:09:13;19.80;17.80;12.80
50587;PMS7003;70782;50.514;30.816;2023-07-02T02:10:16;23.30;21.50;16.50
50587;PMS7003;70782;50.514;30.816;2023-07-02T02:11:19;22.70;22.00;15.90
50587;PMS7003;70782;50.514;30.816;2023-07-02T02:12:21;20.40;18.90;14.60
50587;PMS7003;70782;50.514;30.816;2023-07-02T02:13:23;20.60;19.80;15.70
50587;PMS7003;70782;50.514;30.816;2023-07-02T02:14:26;21.90;20.30;15.60
50587;PMS7003;70782;50.514;30.816;2023-07-02T02:15:28;21.60;20.50;16.00
50587;PMS7003;70782;50.514;30.816;2023-07-02T02:16:30;26.20;23.20;16.70
50587;PMS7003;70782;50.514;30.816;2023-07-02T02:17:33;22.90;21.80;16.70
50587;PMS7003;70782;50.514;30.816;2023-07-02T02:18:35;25.50;23.90;17.20
50587;PMS7003;70782;50.514;30.816;2023-07-02T02:19:37;22.30;21.50;17.40
50587;PMS7003;70782;50.514;30.816;2023-07-02T02:20:39;24.20;22.30;16.80
50587;PMS7003;70782;50.514;30.816;2023-07-02T02:21:42;25.73;24.73;18.00
50587;PMS7003;70782;50.514;30.816;2023-07-02T02:22:45;23.18;22.64;16.91
50587;PMS7003;70782;50.514;30.816;2023-07-02T02:23:47;24.90;23.20;18.00
50587;PMS7003;70782;50.514;30.816;2023-07-02T02:24:50;25.90;24.80;18.70
50587;PMS7003;70782;50.514;30.816;2023-07-02T02:25:51;26.89;25.56;18.78
50587;PMS7003;70782;50.514;30.816;2023-07-02T02:26:54;24.20;23.20;17.70
50587;PMS7003;70782;50.514;30.816;2023-07-02T02:27:56;26.30;26.10;18.50
50587;PMS7003;70782;50.514;30.816;2023-07-02T02:28:59;22.55;22.55;17.18
50587;PMS7003;70782;50.514;30.816;2023-07-02T02:30:01;24.50;23.80;17.70
50587;PMS7003;70782;50.514;30.816;2023-07-02T02:31:06;26.80;25.20;18.60
50587;PMS7003;70782;50.514;30.816;2023-07-02T02:32:09;28.20;26.80;19.40
50587;PMS7003;70782;50.514;30.816;2023-07-02T02:33:12;28.09;27.00;18.27
50587;PMS7003;70782;50.514;30.816;2023-07-02T02:34:15;28.00;26.40;19.20
50587;PMS7003;70782;50.514;30.816;2023-07-02T02:35:17;24.10;24.00;18.40
50587;PMS7003;70782;50.514;30.816;2023-07-02T02:36:19;24.40;23.80;16.40
50587;PMS7003;70782;50.514;30.816;2023-07-02T02:37:22;24.50;24.50;18.10
50587;PMS7003;70782;50.514;30.816;2023-07-02T02:38:25;25.82;24.18;18.91
50587;PMS7003;70782;50.514;30.816;2023-07-02T02:39:27;25.30;23.70;17.00
50587;PMS7003;70782;50.514;30.816;2023-07-02T02:40:29;24.40;24.40;18.60
50587;PMS7003;70782;50.514;30.816;2023-07-02T02:41:31;26.40;24.90;19.10
50587;PMS7003;70782;50.514;30.816;2023-07-02T02:42:34;25.70;23.80;18.00
50587;PMS7003;70782;50.514;30.816;2023-07-02T02:43:37;22.90;22.90;17.00
50587;PMS7003;70782;50.514;30.816;2023-07-02T02:44:39;24.40;24.40;17.30
50587;PMS7003;70782;50.514;30.816;2023-07-02T02:45:41;24.67;23.89;17.11
50587;PMS7003;70782;50.514;30.816;2023-07-02T02:46:44;24.40;22.90;16.60
50587;PMS7003;70782;50.514;30.816;2023-07-02T02:47:46;24.70;23.50;17.60
50587;PMS7003;70782;50.514;30.816;2023-07-02T02:48:48;25.70;24.40;18.40
50587;PMS7003;70782;50.514;30.816;2023-07-02T02:49:51;25.60;23.40;18.80
50587;PMS7003;70782;50.514;30.816;2023-07-02T02:50:53;23.30;21.70;16.60
50587;PMS7003;70782;50.514;30.816;2023-07-02T02:51:55;25.10;23.70;17.60
50587;PMS7003;70782;50.514;30.816;2023-07-02T02:52:57;25.30;24.50;17.70
50587;PMS7003;70782;50.514;30.816;2023-07-02T02:53:59;27.60;23.90;17.70
50587;PMS7003;70782;50.514;30.816;2023-07-02T02:55:02;24.60;23.80;17.70
50587;PMS7003;70782;50.514;30.816;2023-07-02T02:56:04;23.64;23.00;17.27
50587;PMS7003;70782;50.514;30.816;2023-07-02T02:57:07;24.90;22.90;16.80
50587;PMS7003;70782;50.514;30.816;2023-07-02T02:58:09;21.89;21.33;15.78
50587;PMS7003;70782;50.514;30.816;2023-07-02T02:59:11;23.00;21.70;17.10
50587;PMS7003;70782;50.514;30.816;2023-07-02T03:00:13;24.20;23.20;16.60
50587;PMS7003;70782;50.514;30.816;2023-07-02T03:01:16;25.00;22.00;16.90
50587;PMS7003;70782;50.514;30.816;2023-07-02T03:02:18;23.56;22.56;16.67
50587;PMS7003;70782;50.514;30.816;2023-07-02T03:03:21;24.10;22.50;17.50
50587;PMS7003;70782;50.514;30.816;2023-07-02T03:04:23;26.70;22.80;17.80
50587;PMS7003;70782;50.514;30.816;2023-07-02T03:05:26;23.40;21.50;16.90
50587;PMS7003;70782;50.514;30.816;2023-07-02T03:06:28;22.00;20.40;15.20
50587;PMS7003;70782;50.514;30.816;2023-07-02T03:07:30;24.56;23.67;16.44
50587;PMS7003;70782;50.514;30.816;2023-07-02T03:08:32;21.50;20.70;14.60
50587;PMS7003;70782;50.514;30.816;2023-07-02T03:09:35;22.70;21.90;16.80
50587;PMS7003;70782;50.514;30.816;2023-07-02T03:10:37;23.20;21.80;16.00
50587;PMS7003;70782;50.514;30.816;2023-07-02T03:11:39;22.56;20.78;16.33
50587;PMS7003;70782;50.514;30.816;2023-07-02T03:12:41;22.10;22.00;15.90
50587;PMS7003;70782;50.514;30.816;2023-07-02T03:13:43;19.56;17.44;11.67
50587;PMS7003;70782;50.514;30.816;2023-07-02T03:14:45;21.11;20.56;14.33
50587;PMS7003;70782;50.514;30.816;2023-07-02T03:15:47;23.80;23.00;16.10
50587;PMS7003;70782;50.514;30.816;2023-07-02T03:16:49;26.50;23.90;16.90
50587;PMS7003;70782;50.514;30.816;2023-07-02T03:17:51;16.70;15.40;9.50
50587;PMS7003;70782;50.514;30.816;2023-07-02T03:18:54;23.50;22.10;17.30
50587;PMS7003;70782;50.514;30.816;2023-07-02T03:21:11;26.20;23.90;16.90
50587;PMS7003;70782;50.514;30.816;2023-07-02T03:22:14;25.70;23.80;18.10
50587;PMS7003;70782;50.514;30.816;2023-07-02T03:23:16;25.40;24.30;17.30
50587;PMS7003;70782;50.514;30.816;2023-07-02T03:24:18;25.78;24.67;17.89
50587;PMS7003;70782;50.514;30.816;2023-07-02T03:25:20;24.80;23.40;17.30
50587;PMS7003;70782;50.514;30.816;2023-07-02T03:26:22;23.10;22.20;16.90
50587;PMS7003;70782;50.514;30.816;2023-07-02T03:27:24;23.44;23.11;16.11
50587;PMS7003;70782;50.514;30.816;2023-07-02T03:28:26;22.20;20.40;16.30
50587;PMS7003;70782;50.514;30.816;2023-07-02T03:29:28;22.33;20.56;15.78
50587;PMS7003;70782;50.514;30.816;2023-07-02T03:30:30;20.80;20.30;14.30
50587;PMS7003;70782;50.514;30.816;2023-07-02T03:31:33;22.40;20.60;16.20
50587;PMS7003;70782;50.514;30.816;2023-07-02T03:32:35;19.60;19.00;14.40
50587;PMS7003;70782;50.514;30.816;2023-07-02T03:33:37;20.50;20.20;15.40
50587;PMS7003;70782;50.514;30.816;2023-07-02T03:34:39;20.56;20.11;15.78
50587;PMS7003;70782;50.514;30.816;2023-07-02T03:35:41;23.30;21.50;15.60
50587;PMS7003;70782;50.514;30.816;2023-07-02T03:36:44;18.50;18.50;15.20
50587;PMS7003;70782;50.514;30.816;2023-07-02T03:37:46;19.67;19.44;14.78
50587;PMS7003;70782;50.514;30.816;2023-07-02T03:38:48;21.00;19.20;13.90
50587;PMS7003;70782;50.514;30.816;2023-07-02T03:39:50;20.11;19.33;13.89
50587;PMS7003;70782;50.514;30.816;2023-07-02T03:40:52;18.60;16.70;12.70
50587;PMS7003;70782;50.514;30.816;2023-07-02T03:41:54;21.50;21.00;15.30
50587;PMS7003;70782;50.514;30.816;2023-07-02T03:42:56;20.70;19.80;15.20
50587;PMS7003;70782;50.514;30.816;2023-07-02T03:43:58;21.00;19.78;14.22
50587;PMS7003;70782;50.514;30.816;2023-07-02T03:45:00;21.44;20.00;15.00
50587;PMS7003;70782;50.514;30.816;2023-07-02T03:46:02;20.00;19.50;14.70
50587;PMS7003;70782;50.514;30.816;2023-07-02T03:47:05;17.90;17.90;14.00
50587;PMS7003;70782;50.514;30.816;2023-07-02T03:48:07;23.20;21.00;15.50
50587;PMS7003;70782;50.514;30.816;2023-07-02T03:49:09;19.50;19.20;14.20
50587;PMS7003;70782;50.514;30.816;2023-07-02T03:50:11;21.80;20.90;15.00
50587;PMS7003;70782;50.514;30.816;2023-07-02T03:51:14;20.30;19.60;14.10
50587;PMS7003;70782;50.514;30.816;2023-07-02T03:52:17;19.73;18.73;14.73
50587;PMS7003;70782;50.514;30.816;2023-07-02T03:53:18;21.22;21.00;16.67
50587;PMS7003;70782;50.514;30.816;2023-07-02T03:54:20;21.10;20.40;15.60
50587;PMS7003;70782;50.514;30.816;2023-07-02T03:55:23;20.90;19.70;14.50
50587;PMS7003;70782;50.514;30.816;2023-07-02T03:56:25;20.00;19.00;14.40
50587;PMS7003;70782;50.514;30.816;2023-07-02T03:57:27;18.56;18.56;13.67
50587;PMS7003;70782;50.514;30.816;2023-07-02T03:58:29;19.70;18.80;15.40
50587;PMS7003;70782;50.514;30.816;2023-07-02T03:59:32;17.90;17.90;14.00
50587;PMS7003;70782;50.514;30.816;2023-07-02T04:00:34;20.44;20.00;16.11
50587;PMS7003;70782;50.514;30.816;2023-07-02T04:01:36;18.20;18.20;12.90
50587;PMS7003;70782;50.514;30.816;2023-07-02T04:02:38;18.30;17.90;14.30
50587;PMS7003;70782;50.514;30.816;2023-07-02T04:03:42;21.60;21.20;15.60
50587;PMS7003;70782;50.514;30.816;2023-07-02T04:04:46;21.80;19.50;15.10
50587;PMS7003;70782;50.514;30.816;2023-07-02T04:05:47;19.00;19.00;14.60
50587;PMS7003;70782;50.514;30.816;2023-07-02T04:06:50;19.10;18.30;14.60
50587;PMS7003;70782;50.514;30.816;2023-07-02T04:07:52;22.20;21.80;16.10
50587;PMS7003;70782;50.514;30.816;2023-07-02T04:08:54;20.33;19.44;14.11
50587;PMS7003;70782;50.514;30.816;2023-07-02T04:09:56;21.11;20.67;14.22
50587;PMS7003;70782;50.514;30.816;2023-07-02T04:10:58;19.60;17.90;14.50
50587;PMS7003;70782;50.514;30.816;2023-07-02T04:12:00;21.40;18.60;14.30
50587;PMS7003;70782;50.514;30.816;2023-07-02T04:13:02;20.70;19.80;15.10
50587;PMS7003;70782;50.514;30.816;2023-07-02T04:14:04;20.60;19.50;14.90
50587;PMS7003;70782;50.514;30.816;2023-07-02T04:15:07;22.20;19.90;14.90
50587;PMS7003;70782;50.514;30.816;2023-07-02T04:16:11;20.60;20.60;15.10
50587;PMS7003;70782;50.514;30.816;2023-07-02T04:17:13;21.90;21.10;15.30
50587;PMS7003;70782;50.514;30.816;2023-07-02T04:18:15;19.22;19.22;14.67
50587;PMS7003;70782;50.514;30.816;2023-07-02T04:19:17;19.78;19.11;13.78
50587;PMS7003;70782;50.514;30.816;2023-07-02T04:20:19;18.90;18.60;14.30
50587;PMS7003;70782;50.514;30.816;2023-07-02T04:21:22;20.40;19.20;13.60
50587;PMS7003;70782;50.514;30.816;2023-07-02T04:22:24;20.00;20.00;14.78
50587;PMS7003;70782;50.514;30.816;2023-07-02T04:23:26;22.60;20.50;15.10
50587;PMS7003;70782;50.514;30.816;2023-07-02T04:24:28;22.20;19.50;15.40
50587;PMS7003;70782;50.514;30.816;2023-07-02T04:25:31;22.80;21.80;14.80
50587;PMS7003;70782;50.514;30.816;2023-07-02T04:26:35;21.10;20.40;15.30
50587;PMS7003;70782;50.514;30.816;2023-07-02T04:27:39;25.50;24.30;16.70
50587;PMS7003;70782;50.514;30.816;2023-07-02T04:28:43;23.80;23.30;16.20
50587;PMS7003;70782;50.514;30.816;2023-07-02T04:29:45;19.50;18.40;15.20
50587;PMS7003;70782;50.514;30.816;2023-07-02T04:30:47;19.60;19.30;15.70
50587;PMS7003;70782;50.514;30.816;2023-07-02T04:31:50;22.50;21.90;16.60
50587;PMS7003;70782;50.514;30.816;2023-07-02T04:32:52;21.80;20.40;16.00
50587;PMS7003;70782;50.514;30.816;2023-07-02T04:33:54;18.67;18.56;13.56
50587;PMS7003;70782;50.514;30.816;2023-07-02T04:34:56;19.40;18.50;13.60
50587;PMS7003;70782;50.514;30.816;2023-07-02T04:35:58;21.60;20.20;15.80
50587;PMS7003;70782;50.514;30.816;2023-07-02T04:37:00;20.70;19.60;14.90
50587;PMS7003;70782;50.514;30.816;2023-07-02T04:38:02;21.90;21.90;16.30
50587;PMS7003;70782;50.514;30.816;2023-07-02T04:39:04;24.00;22.80;16.90
50587;PMS7003;70782;50.514;30.816;2023-07-02T04:40:08;22.45;20.82;15.64
50587;PMS7003;70782;50.514;30.816;2023-07-02T04:41:10;23.73;22.36;15.91
50587;PMS7003;70782;50.514;30.816;2023-07-02T04:42:13;21.90;21.40;16.70
50587;PMS7003;70782;50.514;30.816;2023-07-02T04:43:15;23.00;23.00;17.60
50587;PMS7003;70782;50.514;30.816;2023-07-02T04:44:17;22.70;22.20;16.90
50587;PMS7003;70782;50.514;30.816;2023-07-02T04:45:19;21.90;21.20;16.20
50587;PMS7003;70782;50.514;30.816;2023-07-02T04:46:22;24.70;24.00;17.10
50587;PMS7003;70782;50.514;30.816;2023-07-02T04:47:24;24.70;24.20;17.80
50587;PMS7003;70782;50.514;30.816;2023-07-02T04:48:26;27.60;26.40;18.30
50587;PMS7003;70782;50.514;30.816;2023-07-02T04:49:28;24.44;23.78;18.33
50587;PMS7003;70782;50.514;30.816;2023-07-02T04:50:30;25.20;24.70;17.00
50587;PMS7003;70782;50.514;30.816;2023-07-02T04:51:32;23.10;23.00;18.20
50587;PMS7003;70782;50.514;30.816;2023-07-02T04:52:34;26.00;23.90;17.70
50587;PMS7003;70782;50.514;30.816;2023-07-02T04:53:36;24.40;22.80;17.70
50587;PMS7003;70782;50.514;30.816;2023-07-02T04:54:38;24.50;22.50;17.20
50587;PMS7003;70782;50.514;30.816;2023-07-02T04:55:41;25.80;24.80;18.80
50587;PMS7003;70782;50.514;30.816;2023-07-02T04:56:43;23.91;23.45;17.09
50587;PMS7003;70782;50.514;30.816;2023-07-02T04:57:45;25.89;24.89;19.11
50587;PMS7003;70782;50.514;30.816;2023-07-02T04:58:47;22.56;21.78;17.33
50587;PMS7003;70782;50.514;30.816;2023-07-02T04:59:50;25.70;24.70;18.70
50587;PMS7003;70782;50.514;30.816;2023-07-02T05:00:52;22.50;21.80;16.20
50587;PMS7003;70782;50.514;30.816;2023-07-02T05:01:54;25.30;24.30;18.40
50587;PMS7003;70782;50.514;30.816;2023-07-02T05:02:56;21.90;21.90;17.60
50587;PMS7003;70782;50.514;30.816;2023-07-02T05:03:58;27.30;26.40;19.30
50587;PMS7003;70782;50.514;30.816;2023-07-02T05:05:00;26.30;26.20;18.80
50587;PMS7003;70782;50.514;30.816;2023-07-02T05:06:03;25.00;24.20;18.50
50587;PMS7003;70782;50.514;30.816;2023-07-02T05:07:05;23.80;23.80;16.70
50587;PMS7003;70782;50.514;30.816;2023-07-02T05:08:07;24.10;22.70;17.80
50587;PMS7003;70782;50.514;30.816;2023-07-02T05:09:09;22.70;21.80;16.20
50587;PMS7003;70782;50.514;30.816;2023-07-02T05:10:11;19.50;19.50;16.50
50587;PMS7003;70782;50.514;30.816;2023-07-02T05:11:13;23.78;23.22;16.56
50587;PMS7003;70782;50.514;30.816;2023-07-02T05:12:16;22.40;21.50;15.40
50587;PMS7003;70782;50.514;30.816;2023-07-02T05:13:18;25.00;22.20;16.40
50587;PMS7003;70782;50.514;30.816;2023-07-02T05:14:20;25.20;23.40;18.00
50587;PMS7003;70782;50.514;30.816;2023-07-02T05:15:23;23.30;21.60;17.30
50587;PMS7003;70782;50.514;30.816;2023-07-02T05:16:25;20.10;19.40;15.10
50587;PMS7003;70782;50.514;30.816;2023-07-02T05:17:28;21.70;20.60;16.30
50587;PMS7003;70782;50.514;30.816;2023-07-02T05:18:30;22.20;20.60;15.50
50587;PMS7003;70782;50.514;30.816;2023-07-02T05:19:32;21.70;20.50;15.20
50587;PMS7003;70782;50.514;30.816;2023-07-02T05:20:34;23.60;21.30;15.70
50587;PMS7003;70782;50.514;30.816;2023-07-02T05:21:36;22.11;21.56;17.33
50587;PMS7003;70782;50.514;30.816;2023-07-02T05:22:38;23.67;22.33;17.11
50587;PMS7003;70782;50.514;30.816;2023-07-02T05:23:40;22.00;20.50;16.90
50587;PMS7003;70782;50.514;30.816;2023-07-02T05:24:42;24.60;23.50;18.20
50587;PMS7003;70782;50.514;30.816;2023-07-02T05:25:44;25.20;23.50;17.50
50587;PMS7003;70782;50.514;30.816;2023-07-02T05:26:46;21.20;19.70;15.50
50587;PMS7003;70782;50.514;30.816;2023-07-02T05:27:49;23.00;21.90;17.40
50587;PMS7003;70782;50.514;30.816;2023-07-02T05:28:50;21.44;20.89;16.00
50587;PMS7003;70782;50.514;30.816;2023-07-02T05:29:52;23.11;22.11;16.33
50587;PMS7003;70782;50.514;30.816;2023-07-02T05:30:55;21.80;21.50;17.30
50587;PMS7003;70782;50.514;30.816;2023-07-02T05:31:57;23.44;23.00;17.78
50587;PMS7003;70782;50.514;30.816;2023-07-02T05:32:59;25.10;22.80;18.50
50587;PMS7003;70782;50.514;30.816;2023-07-02T05:34:01;23.10;22.10;17.30
50587;PMS7003;70782;50.514;30.816;2023-07-02T05:35:03;26.00;23.90;18.40
50587;PMS7003;70782;50.514;30.816;2023-07-02T05:36:07;26.20;25.00;18.80
50587;PMS7003;70782;50.514;30.816;2023-07-02T05:37:09;25.56;24.22;18.11
50587;PMS7003;70782;50.514;30.816;2023-07-02T05:38:11;27.70;26.10;19.60
50587;PMS7003;70782;50.514;30.816;2023-07-02T05:39:13;25.80;25.30;18.80
50587;PMS7003;70782;50.514;30.816;2023-07-02T05:40:15;28.10;26.70;19.00
50587;PMS7003;70782;50.514;30.816;2023-07-02T05:42:29;27.80;27.50;20.20
50587;PMS7003;70782;50.514;30.816;2023-07-02T05:43:31;25.80;24.80;18.80
50587;PMS7003;70782;50.514;30.816;2023-07-02T05:44:34;25.80;25.80;19.10
50587;PMS7003;70782;50.514;30.816;2023-07-02T05:45:36;24.80;23.20;18.80
50587;PMS7003;70782;50.514;30.816;2023-07-02T05:46:38;23.70;23.40;18.80
50587;PMS7003;70782;50.514;30.816;2023-07-02T05:47:40;26.10;26.10;19.80
50587;PMS7003;70782;50.514;30.816;2023-07-02T05:48:42;27.30;25.40;19.20
50587;PMS7003;70782;50.514;30.816;2023-07-02T05:49:45;26.00;25.30;18.80
50587;PMS7003;70782;50.514;30.816;2023-07-02T05:50:47;25.90;23.60;17.80
50587;PMS7003;70782;50.514;30.816;2023-07-02T05:51:49;26.60;25.50;19.30